sensor_id;sensor_type;location;lat;lon;timestamp;P1;durP1;ratioP1;P2;durP2;ratioP2
29546;SDS011;40782;47.264;11.330;2024-02-26T00:01:31;7.03;;;4.35;;
29546;SDS011;40782;47.264;11.330;2024-02-26T00:04:00;5.70;;;4.25;;
29546;SDS011;40782;47.264;11.330;2024-02-26T00:06:27;5.97;;;4.50;;
29546;SDS011;40782;47.264;11.330;2024-02-26T00:08:55;6.20;;;4.28;;
29546;SDS011;40782;47.264;11.330;2024-02-26T00:11:22;5.15;;;4.25;;
29546;SDS011;40782;47.264;11.330;2024-02-26T00:13:49;6.78;;;4.90;;
29546;SDS011;40782;47.264;11.330;2024-02-26T00:16:16;5.57;;;4.00;;
29546;SDS011;40782;47.264;11.330;2024-02-26T00:18:44;6.95;;;4.55;;
29546;SDS011;40782;47.264;11.330;2024-02-26T00:21:12;5.28;;;4.07;;
29546;SDS011;40782;47.264;11.330;2024-02-26T00:23:39;5.15;;;4.60;;
29546;SDS011;40782;47.264;11.330;2024-02-26T00:26:07;8.02;;;4.40;;
29546;SDS011;40782;47.264;11.330;2024-02-26T00:28:35;7.30;;;4.38;;
29546;SDS011;40782;47.264;11.330;2024-02-26T00:31:03;6.13;;;4.47;;
29546;SDS011;40782;47.264;11.330;2024-02-26T00:33:30;5.93;;;4.10;;
29546;SDS011;40782;47.264;11.330;2024-02-26T00:35:56;5.18;;;3.80;;
29546;SDS011;40782;47.264;11.330;2024-02-26T00:38:25;5.78;;;3.83;;
29546;SDS011;40782;47.264;11.330;2024-02-26T00:40:52;4.45;;;3.75;;
29546;SDS011;40782;47.264;11.330;2024-02-26T00:43:19;5.95;;;3.80;;
29546;SDS011;40782;47.264;11.330;2024-02-26T00:45:46;7.22;;;4.25;;
29546;SDS011;40782;47.264;11.330;2024-02-26T00:48:13;6.15;;;3.75;;
29546;SDS011;40782;47.264;11.330;2024-02-26T00:50:40;6.80;;;4.55;;
29546;SDS011;40782;47.264;11.330;2024-02-26T00:53:08;6.07;;;4.10;;
29546;SDS011;40782;47.264;11.330;2024-02-26T00:55:37;5.60;;;3.42;;
29546;SDS011;40782;47.264;11.330;2024-02-26T00:58:04;6.63;;;4.40;;
29546;SDS011;40782;47.264;11.330;2024-02-26T01:00:31;9.75;;;4.35;;
29546;SDS011;40782;47.264;11.330;2024-02-26T01:02:59;5.30;;;4.22;;
29546;SDS011;40782;47.264;11.330;2024-02-26T01:05:26;6.13;;;4.18;;
29546;SDS011;40782;47.264;11.330;2024-02-26T01:07:53;7.55;;;4.10;;
29546;SDS011;40782;47.264;11.330;2024-02-26T01:10:20;5.60;;;4.22;;
29546;SDS011;40782;47.264;11.330;2024-02-26T01:12:49;7.15;;;4.03;;
29546;SDS011;40782;47.264;11.330;2024-02-26T01:15:16;6.35;;;4.45;;
29546;SDS011;40782;47.264;11.330;2024-02-26T01:17:44;9.02;;;4.45;;
29546;SDS011;40782;47.264;11.330;2024-02-26T01:20:11;6.82;;;4.00;;
29546;SDS011;40782;47.264;11.330;2024-02-26T01:22:38;6.20;;;4.10;;
29546;SDS011;40782;47.264;11.330;2024-02-26T01:25:06;6.10;;;4.35;;
29546;SDS011;40782;47.264;11.330;2024-02-26T01:27:34;7.10;;;4.00;;
29546;SDS011;40782;47.264;11.330;2024-02-26T01:30:03;6.25;;;3.85;;
29546;SDS011;40782;47.264;11.330;2024-02-26T01:32:31;4.32;;;3.92;;
29546;SDS011;40782;47.264;11.330;2024-02-26T01:34:58;5.28;;;4.00;;
29546;SDS011;40782;47.264;11.330;2024-02-26T01:37:25;5.50;;;4.20;;
29546;SDS011;40782;47.264;11.330;2024-02-26T01:39:54;6.45;;;3.67;;
29546;SDS011;40782;47.264;11.330;2024-02-26T01:42:21;5.75;;;3.90;;
29546;SDS011;40782;47.264;11.330;2024-02-26T01:44:49;4.28;;;3.83;;
29546;SDS011;40782;47.264;11.330;2024-02-26T01:47:18;4.68;;;4.10;;
29546;SDS011;40782;47.264;11.330;2024-02-26T01:49:45;3.90;;;3.42;;
29546;SDS011;40782;47.264;11.330;2024-02-26T01:52:13;7.90;;;4.53;;
29546;SDS011;40782;47.264;11.330;2024-02-26T01:54:40;4.72;;;3.72;;
29546;SDS011;40782;47.264;11.330;2024-02-26T01:57:08;5.90;;;3.80;;
29546;SDS011;40782;47.264;11.330;2024-02-26T01:59:36;5.15;;;3.90;;
29546;SDS011;40782;47.264;11.330;2024-02-26T02:02:05;5.95;;;4.05;;
29546;SDS011;40782;47.264;11.330;2024-02-26T02:04:35;5.30;;;4.20;;
29546;SDS011;40782;47.264;11.330;2024-02-26T02:07:03;6.05;;;3.95;;
29546;SDS011;40782;47.264;11.330;2024-02-26T02:09:31;6.18;;;4.13;;
29546;SDS011;40782;47.264;11.330;2024-02-26T02:11:59;5.05;;;3.90;;
29546;SDS011;40782;47.264;11.330;2024-02-26T02:14:27;5.95;;;3.83;;
29546;SDS011;40782;47.264;11.330;2024-02-26T02:16:54;6.63;;;4.07;;
29546;SDS011;40782;47.264;11.330;2024-02-26T02:19:21;6.13;;;3.95;;
29546;SDS011;40782;47.264;11.330;2024-02-26T02:21:50;4.95;;;3.70;;
29546;SDS011;40782;47.264;11.330;2024-02-26T02:24:17;6.32;;;4.07;;
29546;SDS011;40782;47.264;11.330;2024-02-26T02:26:44;4.95;;;3.55;;
29546;SDS011;40782;47.264;11.330;2024-02-26T02:29:12;8.30;;;3.83;;
29546;SDS011;40782;47.264;11.330;2024-02-26T02:31:40;4.45;;;3.88;;
29546;SDS011;40782;47.264;11.330;2024-02-26T02:34:09;5.65;;;3.55;;
29546;SDS011;40782;47.264;11.330;2024-02-26T02:36:47;4.82;;;3.83;;
29546;SDS011;40782;47.264;11.330;2024-02-26T02:39:18;4.93;;;3.50;;
29546;SDS011;40782;47.264;11.330;2024-02-26T02:41:45;6.70;;;3.60;;
29546;SDS011;40782;47.264;11.330;2024-02-26T02:44:12;4.00;;;3.15;;
29546;SDS011;40782;47.264;11.330;2024-02-26T02:46:40;6.10;;;3.15;;
29546;SDS011;40782;47.264;11.330;2024-02-26T02:49:08;5.60;;;3.17;;
29546;SDS011;40782;47.264;11.330;2024-02-26T02:51:36;5.95;;;3.38;;
29546;SDS011;40782;47.264;11.330;2024-02-26T02:54:05;5.35;;;2.97;;
29546;SDS011;40782;47.264;11.330;2024-02-26T02:56:32;6.45;;;2.92;;
29546;SDS011;40782;47.264;11.330;2024-02-26T02:58:59;4.10;;;3.13;;
29546;SDS011;40782;47.264;11.330;2024-02-26T03:01:26;4.13;;;3.10;;
29546;SDS011;40782;47.264;11.330;2024-02-26T03:03:53;4.28;;;3.53;;
29546;SDS011;40782;47.264;11.330;2024-02-26T03:06:20;3.33;;;3.03;;
29546;SDS011;40782;47.264;11.330;2024-02-26T03:08:48;4.55;;;3.60;;
29546;SDS011;40782;47.264;11.330;2024-02-26T03:11:16;5.72;;;3.65;;
29546;SDS011;40782;47.264;11.330;2024-02-26T03:13:44;3.75;;;3.13;;
29546;SDS011;40782;47.264;11.330;2024-02-26T03:16:11;5.78;;;3.85;;
29546;SDS011;40782;47.264;11.330;2024-02-26T03:18:39;5.55;;;3.75;;
29546;SDS011;40782;47.264;11.330;2024-02-26T03:21:06;5.05;;;3.70;;
29546;SDS011;40782;47.264;11.330;2024-02-26T03:23:35;4.50;;;3.30;;
29546;SDS011;40782;47.264;11.330;2024-02-26T03:26:02;5.45;;;3.55;;
29546;SDS011;40782;47.264;11.330;2024-02-26T03:28:31;4.25;;;3.85;;
29546;SDS011;40782;47.264;11.330;2024-02-26T03:30:59;4.95;;;3.35;;
29546;SDS011;40782;47.264;11.330;2024-02-26T03:33:26;4.97;;;3.65;;
29546;SDS011;40782;47.264;11.330;2024-02-26T03:35:53;3.78;;;3.40;;
29546;SDS011;40782;47.264;11.330;2024-02-26T03:38:20;5.30;;;3.63;;
29546;SDS011;40782;47.264;11.330;2024-02-26T03:40:47;4.00;;;3.60;;
29546;SDS011;40782;47.264;11.330;2024-02-26T03:43:14;5.38;;;3.72;;
29546;SDS011;40782;47.264;11.330;2024-02-26T03:45:44;4.88;;;3.70;;
29546;SDS011;40782;47.264;11.330;2024-02-26T03:48:11;6.30;;;3.35;;
29546;SDS011;40782;47.264;11.330;2024-02-26T03:50:38;3.85;;;3.35;;
29546;SDS011;40782;47.264;11.330;2024-02-26T03:53:06;5.55;;;3.97;;
29546;SDS011;40782;47.264;11.330;2024-02-26T03:55:34;4.45;;;3.33;;
29546;SDS011;40782;47.264;11.330;2024-02-26T03:58:01;5.68;;;3.90;;
29546;SDS011;40782;47.264;11.330;2024-02-26T04:00:29;4.72;;;3.53;;
29546;SDS011;40782;47.264;11.330;2024-02-26T04:02:58;4.40;;;3.55;;
29546;SDS011;40782;47.264;11.330;2024-02-26T04:05:25;4.80;;;3.83;;
29546;SDS011;40782;47.264;11.330;2024-02-26T04:07:52;4.70;;;3.60;;
29546;SDS011;40782;47.264;11.330;2024-02-26T04:10:19;4.18;;;3.60;;
29546;SDS011;40782;47.264;11.330;2024-02-26T04:12:47;4.78;;;3.63;;
29546;SDS011;40782;47.264;11.330;2024-02-26T04:15:14;5.07;;;3.97;;
29546;SDS011;40782;47.264;11.330;2024-02-26T04:17:41;6.15;;;4.20;;
29546;SDS011;40782;47.264;11.330;2024-02-26T04:20:13;5.85;;;3.63;;
29546;SDS011;40782;47.264;11.330;2024-02-26T04:25:08;5.22;;;4.05;;
29546;SDS011;40782;47.264;11.330;2024-02-26T04:27:36;6.10;;;3.80;;
29546;SDS011;40782;47.264;11.330;2024-02-26T04:30:04;5.03;;;4.05;;
29546;SDS011;40782;47.264;11.330;2024-02-26T04:32:31;5.55;;;3.88;;
29546;SDS011;40782;47.264;11.330;2024-02-26T04:35:00;5.28;;;3.88;;
29546;SDS011;40782;47.264;11.330;2024-02-26T04:37:28;6.82;;;4.15;;
29546;SDS011;40782;47.264;11.330;2024-02-26T04:39:57;5.45;;;4.00;;
29546;SDS011;40782;47.264;11.330;2024-02-26T04:42:25;5.28;;;3.97;;
29546;SDS011;40782;47.264;11.330;2024-02-26T04:44:52;5.38;;;4.40;;
29546;SDS011;40782;47.264;11.330;2024-02-26T04:47:20;4.63;;;3.75;;
29546;SDS011;40782;47.264;11.330;2024-02-26T04:49:49;4.68;;;3.80;;
29546;SDS011;40782;47.264;11.330;2024-02-26T04:52:16;5.95;;;3.58;;
29546;SDS011;40782;47.264;11.330;2024-02-26T04:54:45;4.43;;;3.70;;
29546;SDS011;40782;47.264;11.330;2024-02-26T04:57:12;5.55;;;3.80;;
29546;SDS011;40782;47.264;11.330;2024-02-26T04:59:39;6.45;;;3.53;;
29546;SDS011;40782;47.264;11.330;2024-02-26T05:02:07;4.90;;;3.60;;
29546;SDS011;40782;47.264;11.330;2024-02-26T05:04:35;4.00;;;3.42;;
29546;SDS011;40782;47.264;11.330;2024-02-26T05:07:02;6.00;;;3.88;;
29546;SDS011;40782;47.264;11.330;2024-02-26T05:09:29;4.60;;;3.88;;
29546;SDS011;40782;47.264;11.330;2024-02-26T05:12:00;6.53;;;3.75;;
29546;SDS011;40782;47.264;11.330;2024-02-26T05:14:27;4.07;;;3.40;;
29546;SDS011;40782;47.264;11.330;2024-02-26T05:16:54;3.53;;;2.90;;
29546;SDS011;40782;47.264;11.330;2024-02-26T05:19:22;4.43;;;3.60;;
29546;SDS011;40782;47.264;11.330;2024-02-26T05:21:49;8.25;;;4.25;;
29546;SDS011;40782;47.264;11.330;2024-02-26T05:24:16;5.15;;;3.50;;
29546;SDS011;40782;47.264;11.330;2024-02-26T05:26:43;4.07;;;3.13;;
29546;SDS011;40782;47.264;11.330;2024-02-26T05:29:13;4.82;;;3.20;;
29546;SDS011;40782;47.264;11.330;2024-02-26T05:31:41;5.82;;;3.20;;
29546;SDS011;40782;47.264;11.330;2024-02-26T05:34:09;5.25;;;4.07;;
29546;SDS011;40782;47.264;11.330;2024-02-26T05:36:36;5.50;;;3.40;;
29546;SDS011;40782;47.264;11.330;2024-02-26T05:39:03;5.38;;;3.40;;
29546;SDS011;40782;47.264;11.330;2024-02-26T05:41:31;6.95;;;3.20;;
29546;SDS011;40782;47.264;11.330;2024-02-26T05:43:58;3.95;;;2.75;;
29546;SDS011;40782;47.264;11.330;2024-02-26T05:46:26;3.03;;;2.72;;
29546;SDS011;40782;47.264;11.330;2024-02-26T05:48:54;4.72;;;3.35;;
29546;SDS011;40782;47.264;11.330;2024-02-26T05:51:21;3.85;;;3.33;;
29546;SDS011;40782;47.264;11.330;2024-02-26T05:53:48;6.38;;;3.45;;
29546;SDS011;40782;47.264;11.330;2024-02-26T05:56:19;4.60;;;3.38;;
29546;SDS011;40782;47.264;11.330;2024-02-26T05:58:46;4.82;;;3.55;;
29546;SDS011;40782;47.264;11.330;2024-02-26T06:01:15;4.22;;;3.22;;
29546;SDS011;40782;47.264;11.330;2024-02-26T06:03:43;5.05;;;3.63;;
29546;SDS011;40782;47.264;11.330;2024-02-26T06:06:11;4.68;;;3.63;;
29546;SDS011;40782;47.264;11.330;2024-02-26T06:08:39;5.95;;;4.05;;
29546;SDS011;40782;47.264;11.330;2024-02-26T06:11:06;26.75;;;14.68;;
29546;SDS011;40782;47.264;11.330;2024-02-26T06:13:34;27.98;;;16.27;;
29546;SDS011;40782;47.264;11.330;2024-02-26T06:16:01;8.98;;;6.03;;
29546;SDS011;40782;47.264;11.330;2024-02-26T06:18:28;7.70;;;6.03;;
29546;SDS011;40782;47.264;11.330;2024-02-26T06:20:57;5.05;;;4.38;;
29546;SDS011;40782;47.264;11.330;2024-02-26T06:23:24;5.38;;;3.67;;
29546;SDS011;40782;47.264;11.330;2024-02-26T06:25:52;7.50;;;3.50;;
29546;SDS011;40782;47.264;11.330;2024-02-26T06:28:19;5.63;;;4.25;;
29546;SDS011;40782;47.264;11.330;2024-02-26T06:30:46;5.72;;;4.15;;
29546;SDS011;40782;47.264;11.330;2024-02-26T06:33:13;9.90;;;6.13;;
29546;SDS011;40782;47.264;11.330;2024-02-26T06:35:40;10.43;;;6.57;;
29546;SDS011;40782;47.264;11.330;2024-02-26T06:38:09;13.52;;;10.77;;
29546;SDS011;40782;47.264;11.330;2024-02-26T06:40:38;5.70;;;4.68;;
29546;SDS011;40782;47.264;11.330;2024-02-26T06:43:05;10.10;;;6.43;;
29546;SDS011;40782;47.264;11.330;2024-02-26T06:45:32;6.82;;;6.10;;
29546;SDS011;40782;47.264;11.330;2024-02-26T06:47:59;7.95;;;5.53;;
29546;SDS011;40782;47.264;11.330;2024-02-26T06:50:27;8.77;;;5.53;;
29546;SDS011;40782;47.264;11.330;2024-02-26T06:52:54;8.60;;;5.32;;
29546;SDS011;40782;47.264;11.330;2024-02-26T06:55:23;7.55;;;4.97;;
29546;SDS011;40782;47.264;11.330;2024-02-26T06:57:50;6.30;;;4.30;;
29546;SDS011;40782;47.264;11.330;2024-02-26T07:00:18;8.15;;;5.07;;
29546;SDS011;40782;47.264;11.330;2024-02-26T07:02:45;6.18;;;4.53;;
29546;SDS011;40782;47.264;11.330;2024-02-26T07:05:12;6.22;;;4.70;;
29546;SDS011;40782;47.264;11.330;2024-02-26T07:07:39;7.00;;;4.78;;
29546;SDS011;40782;47.264;11.330;2024-02-26T07:10:07;5.45;;;4.18;;
29546;SDS011;40782;47.264;11.330;2024-02-26T07:12:38;6.22;;;4.07;;
29546;SDS011;40782;47.264;11.330;2024-02-26T07:15:06;5.93;;;4.00;;
29546;SDS011;40782;47.264;11.330;2024-02-26T07:17:34;5.38;;;4.22;;
29546;SDS011;40782;47.264;11.330;2024-02-26T07:20:01;7.45;;;4.55;;
29546;SDS011;40782;47.264;11.330;2024-02-26T07:22:29;5.10;;;4.53;;
29546;SDS011;40782;47.264;11.330;2024-02-26T07:24:56;6.03;;;4.40;;
29546;SDS011;40782;47.264;11.330;2024-02-26T07:27:24;5.93;;;4.35;;
29546;SDS011;40782;47.264;11.330;2024-02-26T07:29:52;5.28;;;4.65;;
29546;SDS011;40782;47.264;11.330;2024-02-26T07:32:19;8.68;;;4.57;;
29546;SDS011;40782;47.264;11.330;2024-02-26T07:34:47;7.15;;;4.80;;
29546;SDS011;40782;47.264;11.330;2024-02-26T07:37:16;6.25;;;4.70;;
29546;SDS011;40782;47.264;11.330;2024-02-26T07:39:43;5.60;;;3.92;;
29546;SDS011;40782;47.264;11.330;2024-02-26T07:42:11;8.52;;;4.47;;
29546;SDS011;40782;47.264;11.330;2024-02-26T07:44:38;8.50;;;4.20;;
29546;SDS011;40782;47.264;11.330;2024-02-26T07:47:09;6.25;;;4.50;;
29546;SDS011;40782;47.264;11.330;2024-02-26T07:49:36;11.18;;;4.95;;
29546;SDS011;40782;47.264;11.330;2024-02-26T07:52:04;8.70;;;5.20;;
29546;SDS011;40782;47.264;11.330;2024-02-26T07:54:31;7.82;;;5.22;;
29546;SDS011;40782;47.264;11.330;2024-02-26T07:56:58;8.02;;;5.30;;
29546;SDS011;40782;47.264;11.330;2024-02-26T07:59:26;7.75;;;5.18;;
29546;SDS011;40782;47.264;11.330;2024-02-26T08:01:53;6.95;;;4.53;;
29546;SDS011;40782;47.264;11.330;2024-02-26T08:04:22;9.13;;;4.80;;
29546;SDS011;40782;47.264;11.330;2024-02-26T08:06:49;8.95;;;4.80;;
29546;SDS011;40782;47.264;11.330;2024-02-26T08:09:16;7.05;;;5.35;;
29546;SDS011;40782;47.264;11.330;2024-02-26T08:11:44;7.38;;;4.88;;
29546;SDS011;40782;47.264;11.330;2024-02-26T08:14:11;6.15;;;4.70;;
29546;SDS011;40782;47.264;11.330;2024-02-26T08:16:38;6.72;;;4.93;;
29546;SDS011;40782;47.264;11.330;2024-02-26T08:19:06;6.10;;;4.88;;
29546;SDS011;40782;47.264;11.330;2024-02-26T08:21:36;7.82;;;5.10;;
29546;SDS011;40782;47.264;11.330;2024-02-26T08:24:04;12.23;;;5.88;;
29546;SDS011;40782;47.264;11.330;2024-02-26T08:26:32;7.45;;;4.70;;
29546;SDS011;40782;47.264;11.330;2024-02-26T08:28:59;6.75;;;4.85;;
29546;SDS011;40782;47.264;11.330;2024-02-26T08:31:26;6.72;;;4.35;;
29546;SDS011;40782;47.264;11.330;2024-02-26T08:33:53;6.05;;;4.30;;
29546;SDS011;40782;47.264;11.330;2024-02-26T08:36:20;7.32;;;4.07;;
29546;SDS011;40782;47.264;11.330;2024-02-26T08:38:49;7.95;;;4.47;;
29546;SDS011;40782;47.264;11.330;2024-02-26T08:41:16;5.72;;;3.88;;
29546;SDS011;40782;47.264;11.330;2024-02-26T08:43:43;7.28;;;4.13;;
29546;SDS011;40782;47.264;11.330;2024-02-26T08:46:12;7.72;;;3.85;;
29546;SDS011;40782;47.264;11.330;2024-02-26T08:48:39;8.80;;;4.32;;
29546;SDS011;40782;47.264;11.330;2024-02-26T08:51:07;6.95;;;3.83;;
29546;SDS011;40782;47.264;11.330;2024-02-26T08:53:35;6.38;;;3.83;;
29546;SDS011;40782;47.264;11.330;2024-02-26T08:56:04;6.05;;;3.90;;
29546;SDS011;40782;47.264;11.330;2024-02-26T08:58:33;4.78;;;3.78;;
29546;SDS011;40782;47.264;11.330;2024-02-26T09:01:01;5.88;;;3.90;;
29546;SDS011;40782;47.264;11.330;2024-02-26T09:03:28;5.38;;;3.42;;
29546;SDS011;40782;47.264;11.330;2024-02-26T09:05:55;4.13;;;3.40;;
29546;SDS011;40782;47.264;11.330;2024-02-26T09:08:22;4.18;;;3.35;;
29546;SDS011;40782;47.264;11.330;2024-02-26T09:10:49;4.28;;;3.85;;
29546;SDS011;40782;47.264;11.330;2024-02-26T09:13:18;5.95;;;4.30;;
29546;SDS011;40782;47.264;11.330;2024-02-26T09:15:45;6.18;;;4.45;;
29546;SDS011;40782;47.264;11.330;2024-02-26T09:18:11;4.53;;;3.63;;
29546;SDS011;40782;47.264;11.330;2024-02-26T09:20:40;4.63;;;3.70;;
29546;SDS011;40782;47.264;11.330;2024-02-26T09:23:07;5.97;;;4.05;;
29546;SDS011;40782;47.264;11.330;2024-02-26T09:25:34;8.95;;;4.15;;
29546;SDS011;40782;47.264;11.330;2024-02-26T09:28:02;4.50;;;3.78;;
29546;SDS011;40782;47.264;11.330;2024-02-26T09:30:31;4.72;;;3.85;;
29546;SDS011;40782;47.264;11.330;2024-02-26T09:32:58;6.85;;;4.13;;
29546;SDS011;40782;47.264;11.330;2024-02-26T09:35:26;8.05;;;3.35;;
29546;SDS011;40782;47.264;11.330;2024-02-26T09:37:53;7.10;;;3.10;;
29546;SDS011;40782;47.264;11.330;2024-02-26T09:40:20;5.15;;;3.50;;
29546;SDS011;40782;47.264;11.330;2024-02-26T09:42:48;8.43;;;3.92;;
29546;SDS011;40782;47.264;11.330;2024-02-26T09:45:23;4.18;;;3.20;;
29546;SDS011;40782;47.264;11.330;2024-02-26T09:47:55;6.18;;;3.17;;
29546;SDS011;40782;47.264;11.330;2024-02-26T09:50:22;6.45;;;2.95;;
29546;SDS011;40782;47.264;11.330;2024-02-26T09:52:49;4.65;;;2.80;;
29546;SDS011;40782;47.264;11.330;2024-02-26T09:55:18;4.50;;;3.05;;
29546;SDS011;40782;47.264;11.330;2024-02-26T09:57:45;4.70;;;3.70;;
29546;SDS011;40782;47.264;11.330;2024-02-26T10:00:15;8.95;;;3.80;;
29546;SDS011;40782;47.264;11.330;2024-02-26T10:02:45;4.88;;;3.28;;
29546;SDS011;40782;47.264;11.330;2024-02-26T10:05:16;7.88;;;3.60;;
29546;SDS011;40782;47.264;11.330;2024-02-26T10:07:44;9.63;;;4.65;;
29546;SDS011;40782;47.264;11.330;2024-02-26T10:10:12;9.90;;;3.50;;
29546;SDS011;40782;47.264;11.330;2024-02-26T10:12:40;6.40;;;3.40;;
29546;SDS011;40782;47.264;11.330;2024-02-26T10:15:07;4.25;;;2.95;;
29546;SDS011;40782;47.264;11.330;2024-02-26T10:17:35;4.05;;;2.50;;
29546;SDS011;40782;47.264;11.330;2024-02-26T10:20:12;5.43;;;2.67;;
29546;SDS011;40782;47.264;11.330;2024-02-26T10:22:42;3.17;;;2.65;;
29546;SDS011;40782;47.264;11.330;2024-02-26T10:25:10;4.45;;;3.25;;
29546;SDS011;40782;47.264;11.330;2024-02-26T10:27:37;4.82;;;2.90;;
29546;SDS011;40782;47.264;11.330;2024-02-26T10:30:13;6.65;;;2.83;;
29546;SDS011;40782;47.264;11.330;2024-02-26T10:32:44;3.15;;;2.78;;
29546;SDS011;40782;47.264;11.330;2024-02-26T10:35:12;4.85;;;2.65;;
29546;SDS011;40782;47.264;11.330;2024-02-26T10:37:41;2.97;;;2.70;;
29546;SDS011;40782;47.264;11.330;2024-02-26T10:40:10;6.35;;;2.50;;
29546;SDS011;40782;47.264;11.330;2024-02-26T10:42:37;4.25;;;2.65;;
29546;SDS011;40782;47.264;11.330;2024-02-26T10:45:05;5.43;;;3.00;;
29546;SDS011;40782;47.264;11.330;2024-02-26T10:47:34;4.68;;;2.72;;
29546;SDS011;40782;47.264;11.330;2024-02-26T10:50:02;8.07;;;2.80;;
29546;SDS011;40782;47.264;11.330;2024-02-26T10:52:32;3.92;;;2.47;;
29546;SDS011;40782;47.264;11.330;2024-02-26T10:55:00;4.85;;;2.58;;
29546;SDS011;40782;47.264;11.330;2024-02-26T10:57:29;2.80;;;2.30;;
29546;SDS011;40782;47.264;11.330;2024-02-26T11:00:00;4.87;;;2.50;;
29546;SDS011;40782;47.264;11.330;2024-02-26T11:02:31;1.98;;;1.70;;
29546;SDS011;40782;47.264;11.330;2024-02-26T11:05:00;7.05;;;2.20;;
29546;SDS011;40782;47.264;11.330;2024-02-26T11:07:29;3.53;;;1.52;;
29546;SDS011;40782;47.264;11.330;2024-02-26T11:09:59;2.70;;;1.58;;
29546;SDS011;40782;47.264;11.330;2024-02-26T11:12:27;3.47;;;1.60;;
29546;SDS011;40782;47.264;11.330;2024-02-26T11:14:56;2.70;;;1.52;;
29546;SDS011;40782;47.264;11.330;2024-02-26T11:17:26;4.93;;;1.95;;
29546;SDS011;40782;47.264;11.330;2024-02-26T11:19:56;3.87;;;2.03;;
29546;SDS011;40782;47.264;11.330;2024-02-26T11:22:24;2.03;;;1.88;;
29546;SDS011;40782;47.264;11.330;2024-02-26T11:24:54;2.00;;;1.83;;
29546;SDS011;40782;47.264;11.330;2024-02-26T11:27:23;3.05;;;1.75;;
29546;SDS011;40782;47.264;11.330;2024-02-26T11:29:55;3.90;;;1.95;;
29546;SDS011;40782;47.264;11.330;2024-02-26T11:32:25;4.15;;;1.70;;
29546;SDS011;40782;47.264;11.330;2024-02-26T11:34:53;2.63;;;2.15;;
29546;SDS011;40782;47.264;11.330;2024-02-26T11:37:21;2.58;;;2.03;;
29546;SDS011;40782;47.264;11.330;2024-02-26T11:39:48;3.65;;;1.80;;
29546;SDS011;40782;47.264;11.330;2024-02-26T11:42:23;1.92;;;1.58;;
29546;SDS011;40782;47.264;11.330;2024-02-26T11:44:51;2.38;;;1.27;;
29546;SDS011;40782;47.264;11.330;2024-02-26T11:47:19;1.10;;;0.80;;
29546;SDS011;40782;47.264;11.330;2024-02-26T11:49:47;0.82;;;0.80;;
29546;SDS011;40782;47.264;11.330;2024-02-26T11:52:15;3.25;;;2.28;;
29546;SDS011;40782;47.264;11.330;2024-02-26T11:54:43;4.88;;;1.88;;
29546;SDS011;40782;47.264;11.330;2024-02-26T11:57:25;2.20;;;1.02;;
29546;SDS011;40782;47.264;11.330;2024-02-26T11:59:54;1.70;;;1.00;;
29546;SDS011;40782;47.264;11.330;2024-02-26T12:02:40;2.10;;;1.52;;
29546;SDS011;40782;47.264;11.330;2024-02-26T12:05:11;2.28;;;1.48;;
29546;SDS011;40782;47.264;11.330;2024-02-26T12:07:39;2.30;;;1.63;;
29546;SDS011;40782;47.264;11.330;2024-02-26T12:10:14;2.53;;;1.60;;
29546;SDS011;40782;47.264;11.330;2024-02-26T12:12:55;1.45;;;1.30;;
29546;SDS011;40782;47.264;11.330;2024-02-26T12:15:30;5.90;;;1.52;;
29546;SDS011;40782;47.264;11.330;2024-02-26T12:18:00;1.52;;;1.42;;
29546;SDS011;40782;47.264;11.330;2024-02-26T12:20:28;2.40;;;1.50;;
29546;SDS011;40782;47.264;11.330;2024-02-26T12:22:55;2.50;;;1.50;;
29546;SDS011;40782;47.264;11.330;2024-02-26T12:25:23;3.00;;;1.60;;
29546;SDS011;40782;47.264;11.330;2024-02-26T12:27:52;3.40;;;2.15;;
29546;SDS011;40782;47.264;11.330;2024-02-26T12:30:21;2.75;;;2.17;;
29546;SDS011;40782;47.264;11.330;2024-02-26T12:32:49;4.97;;;2.00;;
29546;SDS011;40782;47.264;11.330;2024-02-26T12:35:17;5.03;;;1.90;;
29546;SDS011;40782;47.264;11.330;2024-02-26T12:37:44;4.35;;;1.88;;
29546;SDS011;40782;47.264;11.330;2024-02-26T12:40:13;3.65;;;2.00;;
29546;SDS011;40782;47.264;11.330;2024-02-26T12:42:41;5.05;;;2.20;;
29546;SDS011;40782;47.264;11.330;2024-02-26T12:45:09;4.30;;;1.85;;
29546;SDS011;40782;47.264;11.330;2024-02-26T12:47:38;3.40;;;2.55;;
29546;SDS011;40782;47.264;11.330;2024-02-26T12:50:06;1.65;;;1.55;;
29546;SDS011;40782;47.264;11.330;2024-02-26T12:52:34;4.57;;;1.95;;
29546;SDS011;40782;47.264;11.330;2024-02-26T12:55:02;2.85;;;1.38;;
29546;SDS011;40782;47.264;11.330;2024-02-26T12:57:31;2.25;;;1.60;;
29546;SDS011;40782;47.264;11.330;2024-02-26T12:59:59;2.28;;;1.60;;
29546;SDS011;40782;47.264;11.330;2024-02-26T13:02:28;3.97;;;1.73;;
29546;SDS011;40782;47.264;11.330;2024-02-26T13:04:57;3.25;;;1.63;;
29546;SDS011;40782;47.264;11.330;2024-02-26T13:07:26;1.50;;;1.00;;
29546;SDS011;40782;47.264;11.330;2024-02-26T13:09:53;1.55;;;1.45;;
29546;SDS011;40782;47.264;11.330;2024-02-26T13:12:21;1.88;;;1.20;;
29546;SDS011;40782;47.264;11.330;2024-02-26T13:14:57;3.00;;;1.45;;
29546;SDS011;40782;47.264;11.330;2024-02-26T13:17:25;3.55;;;1.67;;
29546;SDS011;40782;47.264;11.330;2024-02-26T13:19:53;4.28;;;1.88;;
29546;SDS011;40782;47.264;11.330;2024-02-26T13:22:22;3.08;;;2.28;;
29546;SDS011;40782;47.264;11.330;2024-02-26T13:24:55;2.17;;;1.88;;
29546;SDS011;40782;47.264;11.330;2024-02-26T13:27:23;2.25;;;1.90;;
29546;SDS011;40782;47.264;11.330;2024-02-26T13:30:01;4.47;;;1.92;;
29546;SDS011;40782;47.264;11.330;2024-02-26T13:32:31;2.67;;;1.70;;
29546;SDS011;40782;47.264;11.330;2024-02-26T13:35:04;3.38;;;2.10;;
29546;SDS011;40782;47.264;11.330;2024-02-26T13:37:34;6.63;;;1.95;;
29546;SDS011;40782;47.264;11.330;2024-02-26T13:40:04;3.35;;;1.70;;
29546;SDS011;40782;47.264;11.330;2024-02-26T13:42:32;3.70;;;1.98;;
29546;SDS011;40782;47.264;11.330;2024-02-26T13:44:59;1.77;;;1.55;;
29546;SDS011;40782;47.264;11.330;2024-02-26T13:47:26;2.75;;;1.92;;
29546;SDS011;40782;47.264;11.330;2024-02-26T13:49:53;3.33;;;1.85;;
29546;SDS011;40782;47.264;11.330;2024-02-26T13:52:21;2.35;;;1.95;;
29546;SDS011;40782;47.264;11.330;2024-02-26T13:54:50;3.47;;;1.90;;
29546;SDS011;40782;47.264;11.330;2024-02-26T13:57:17;2.03;;;1.70;;
29546;SDS011;40782;47.264;11.330;2024-02-26T13:59:45;2.20;;;1.70;;
29546;SDS011;40782;47.264;11.330;2024-02-26T14:02:13;2.10;;;1.75;;
29546;SDS011;40782;47.264;11.330;2024-02-26T14:04:40;5.47;;;1.58;;
29546;SDS011;40782;47.264;11.330;2024-02-26T14:07:07;4.72;;;1.90;;
29546;SDS011;40782;47.264;11.330;2024-02-26T14:09:35;2.60;;;2.00;;
29546;SDS011;40782;47.264;11.330;2024-02-26T14:12:04;4.55;;;2.35;;
29546;SDS011;40782;47.264;11.330;2024-02-26T14:14:31;2.78;;;1.88;;
29546;SDS011;40782;47.264;11.330;2024-02-26T14:17:01;5.25;;;2.88;;
29546;SDS011;40782;47.264;11.330;2024-02-26T14:19:29;2.55;;;2.33;;
29546;SDS011;40782;47.264;11.330;2024-02-26T14:21:56;4.10;;;2.00;;
29546;SDS011;40782;47.264;11.330;2024-02-26T14:24:23;3.00;;;2.22;;
29546;SDS011;40782;47.264;11.330;2024-02-26T14:26:50;3.13;;;2.05;;
29546;SDS011;40782;47.264;11.330;2024-02-26T14:29:18;6.45;;;2.50;;
29546;SDS011;40782;47.264;11.330;2024-02-26T14:31:46;2.47;;;1.85;;
29546;SDS011;40782;47.264;11.330;2024-02-26T14:34:13;3.50;;;1.80;;
29546;SDS011;40782;47.264;11.330;2024-02-26T14:36:42;2.60;;;2.40;;
29546;SDS011;40782;47.264;11.330;2024-02-26T14:39:10;5.35;;;2.85;;
29546;SDS011;40782;47.264;11.330;2024-02-26T14:41:38;3.63;;;2.40;;